createdAt,value
2022-09-26T00:01:22.704Z,4.17
2022-09-26T00:05:04.972Z,7.60
2022-09-26T00:08:48.062Z,5.27
2022-09-26T00:12:29.894Z,3.60
2022-09-26T00:16:12.829Z,2.80
2022-09-26T00:19:54.807Z,2.70
2022-09-26T00:23:37.093Z,4.17
2022-09-26T00:27:20.499Z,3.33
2022-09-26T00:31:14.553Z,3.53
2022-09-26T00:34:56.416Z,4.97
2022-09-26T00:38:38.775Z,5.07
2022-09-26T00:42:23.185Z,4.63
2022-09-26T00:46:16.553Z,2.70
2022-09-26T00:50:16.774Z,5.33
2022-09-26T00:53:59.463Z,4.17
2022-09-26T00:57:53.475Z,4.43
2022-09-26T01:01:35.560Z,7.13
2022-09-26T01:05:21.950Z,5.03
2022-09-26T01:12:52.371Z,3.38
2022-09-26T01:16:34.919Z,2.97
2022-09-26T01:20:39.272Z,5.30
2022-09-26T01:25:05.502Z,3.60
2022-09-26T01:29:06.160Z,4.60
2022-09-26T01:33:18.755Z,4.77
2022-09-26T01:37:08.786Z,6.10
2022-09-26T01:41:14.183Z,3.10
2022-09-26T01:45:12.505Z,7.03
2022-09-26T01:49:36.172Z,4.27
2022-09-26T01:53:33.030Z,7.17
2022-09-26T01:57:23.560Z,5.03
2022-09-26T02:01:10.670Z,4.57
2022-09-26T02:05:12.172Z,5.10
2022-09-26T02:08:59.845Z,6.83
2022-09-26T02:12:46.051Z,3.17
2022-09-26T02:16:37.663Z,2.22
2022-09-26T02:20:30.896Z,4.23
2022-09-26T02:24:14.158Z,3.43
2022-09-26T02:27:56.838Z,2.80
2022-09-26T02:31:46.779Z,3.37
2022-09-26T02:35:47.512Z,3.83
2022-09-26T02:39:29.347Z,3.10
2022-09-26T02:43:48.393Z,4.83
2022-09-26T02:47:48.355Z,3.40
2022-09-26T02:52:10.368Z,6.27
2022-09-26T02:56:09.410Z,5.03
2022-09-26T02:59:59.857Z,2.63
2022-09-26T03:03:56.590Z,3.73
2022-09-26T03:11:27.353Z,4.85
2022-09-26T03:15:12.205Z,5.03
2022-09-26T03:19:18.767Z,3.07
2022-09-26T03:23:03.221Z,3.17
2022-09-26T03:26:46.996Z,2.97
2022-09-26T03:30:30.051Z,2.77
2022-09-26T03:34:12.663Z,2.57
2022-09-26T03:37:54.714Z,1.90
2022-09-26T03:41:36.604Z,2.20
2022-09-26T03:45:18.749Z,2.50
2022-09-26T03:49:00.779Z,3.63
2022-09-26T03:52:42.873Z,2.57
2022-09-26T03:56:27.055Z,1.63
2022-09-26T04:00:09.419Z,3.50
2022-09-26T04:03:51.538Z,1.67
2022-09-26T04:07:33.440Z,0.80
2022-09-26T04:11:19.348Z,1.67
2022-09-26T04:15:02.554Z,0.75
2022-09-26T04:18:44.440Z,2.27
2022-09-26T04:22:27.368Z,0.40
2022-09-26T04:26:22.992Z,0.97
2022-09-26T04:30:06.576Z,2.05
2022-09-26T04:33:49.308Z,1.03
2022-09-26T04:37:31.335Z,0.70
2022-09-26T04:41:21.979Z,1.03
2022-09-26T04:45:04.775Z,1.37
2022-09-26T04:48:46.843Z,1.13
2022-09-26T04:52:28.842Z,1.10
2022-09-26T04:56:13.929Z,1.57
2022-09-26T04:59:55.794Z,1.47
2022-09-26T05:03:38.905Z,1.67
2022-09-26T05:07:20.900Z,2.23
2022-09-26T05:11:03.529Z,2.53
2022-09-26T05:14:45.450Z,2.13
2022-09-26T05:18:28.222Z,3.90
2022-09-26T05:22:10.707Z,4.57
2022-09-26T05:26:30.922Z,6.93
2022-09-26T05:30:13.133Z,1.97
2022-09-26T05:33:58.058Z,3.00
2022-09-26T05:37:40.121Z,3.67
2022-09-26T05:41:22.799Z,1.77
2022-09-26T05:45:06.708Z,4.37
2022-09-26T05:48:48.882Z,3.10
2022-09-26T05:52:31.153Z,6.27
2022-09-26T05:56:18.453Z,10.13
2022-09-26T06:00:02.460Z,8.47
2022-09-26T06:03:46.546Z,5.97
2022-09-26T06:07:28.531Z,4.30
2022-09-26T06:11:18.448Z,8.17
2022-09-26T06:15:00.453Z,6.77
2022-09-26T06:18:42.380Z,8.30
2022-09-26T06:22:24.651Z,10.63
2022-09-26T06:26:09.084Z,12.53
2022-09-26T06:29:51.296Z,11.83
2022-09-26T06:33:33.592Z,9.90
2022-09-26T06:37:15.653Z,5.80
2022-09-26T06:40:57.791Z,7.83
2022-09-26T06:44:39.685Z,8.77
2022-09-26T06:48:25.730Z,7.17
2022-09-26T06:52:07.582Z,8.93
2022-09-26T06:55:49.861Z,10.93
2022-09-26T06:59:31.707Z,13.03
2022-09-26T07:03:15.572Z,11.03
2022-09-26T07:06:59.982Z,13.80
2022-09-26T07:10:42.028Z,8.33
2022-09-26T07:14:23.920Z,8.97
2022-09-26T07:18:07.122Z,12.27
2022-09-26T07:21:55.572Z,10.73
2022-09-26T07:25:40.084Z,13.70
2022-09-26T07:29:22.151Z,15.90
2022-09-26T07:33:06.597Z,12.43
2022-09-26T07:36:48.839Z,12.80
2022-09-26T07:40:31.177Z,14.87
2022-09-26T07:48:35.747Z,13.03
2022-09-26T07:52:22.655Z,16.00
2022-09-26T07:56:06.175Z,13.50
2022-09-26T07:59:55.823Z,12.25
2022-09-26T08:03:45.442Z,12.50
2022-09-26T08:07:27.484Z,9.77
2022-09-26T08:11:22.812Z,14.18
2022-09-26T08:15:06.478Z,18.17
2022-09-26T08:18:48.960Z,18.63
2022-09-26T08:22:31.270Z,15.40
2022-09-26T08:26:13.767Z,13.88
2022-09-26T08:29:56.963Z,13.93
2022-09-26T08:33:39.017Z,21.63
2022-09-26T08:37:29.548Z,13.20
2022-09-26T08:41:21.849Z,14.52
2022-09-26T08:45:51.467Z,15.35
2022-09-26T08:49:53.059Z,18.55
2022-09-26T08:53:52.597Z,15.77
2022-09-26T08:57:44.335Z,21.80
2022-09-26T09:01:38.028Z,15.75
2022-09-26T09:05:25.216Z,22.42
2022-09-26T09:09:07.660Z,24.45
2022-09-26T09:13:05.282Z,20.02
2022-09-26T09:17:14.148Z,22.25
2022-09-26T09:21:24.818Z,25.63
2022-09-26T09:25:18.817Z,22.90
2022-09-26T09:29:10.331Z,20.83
2022-09-26T09:33:17.168Z,25.52
2022-09-26T09:37:17.780Z,25.67
2022-09-26T09:45:22.634Z,16.75
2022-09-26T09:49:43.511Z,20.08
2022-09-26T09:54:01.038Z,17.25
2022-09-26T09:58:03.138Z,18.25
2022-09-26T10:01:55.250Z,18.27
2022-09-26T10:05:43.729Z,20.92
2022-09-26T10:09:53.696Z,15.02
2022-09-26T10:13:37.252Z,14.18
2022-09-26T10:17:33.001Z,13.55
2022-09-26T10:25:29.059Z,16.90
2022-09-26T10:29:25.758Z,16.58
2022-09-26T10:33:43.833Z,15.25
2022-09-26T10:37:30.953Z,17.17
2022-09-26T10:41:43.848Z,12.50
2022-09-26T10:45:52.030Z,14.55
2022-09-26T10:49:57.589Z,11.02
2022-09-26T10:58:08.945Z,10.30
2022-09-26T11:02:08.109Z,9.67
2022-09-26T11:06:00.101Z,9.57
2022-09-26T11:09:42.743Z,13.70
2022-09-26T11:13:28.050Z,10.73
2022-09-26T11:17:14.991Z,11.18
2022-09-26T11:21:27.826Z,10.45
2022-09-26T11:25:35.837Z,10.55
2022-09-26T11:29:19.219Z,8.98
2022-09-26T11:33:05.648Z,8.55
2022-09-26T11:37:12.554Z,9.13
2022-09-26T11:41:45.548Z,7.38
2022-09-26T11:45:45.210Z,7.75
2022-09-26T11:49:56.135Z,8.73
2022-09-26T11:54:12.987Z,8.85
2022-09-26T11:58:04.812Z,39.38
2022-09-26T12:02:09.228Z,6.95
2022-09-26T12:06:02.452Z,5.13
2022-09-26T12:09:47.636Z,6.32
2022-09-26T12:13:35.642Z,5.75
2022-09-26T12:17:41.281Z,7.82
2022-09-26T12:22:05.402Z,9.50
2022-09-26T12:26:15.741Z,7.30
2022-09-26T12:30:10.774Z,8.05
2022-09-26T12:34:24.707Z,7.88
2022-09-26T12:38:15.849Z,8.40
2022-09-26T12:42:02.834Z,7.15
2022-09-26T12:46:09.258Z,7.55
2022-09-26T12:50:17.815Z,6.30
2022-09-26T12:54:17.971Z,8.45
2022-09-26T12:58:17.996Z,6.47
2022-09-26T13:02:15.514Z,8.40
2022-09-26T13:06:35.156Z,8.27
2022-09-26T13:10:41.672Z,7.78
2022-09-26T13:14:52.882Z,7.95
2022-09-26T13:18:39.932Z,5.65
2022-09-26T13:22:27.632Z,9.45
2022-09-26T13:26:20.200Z,8.27
2022-09-26T13:30:24.462Z,9.35
2022-09-26T13:34:21.533Z,7.20
2022-09-26T13:38:08.416Z,7.90
2022-09-26T13:42:18.384Z,6.63
2022-09-26T13:46:16.178Z,10.10
2022-09-26T13:50:15.541Z,6.05
2022-09-26T13:54:11.658Z,5.63
2022-09-26T13:58:00.882Z,7.43
2022-09-26T14:02:16.158Z,7.13
2022-09-26T14:06:09.611Z,6.22
2022-09-26T14:10:12.350Z,5.28
2022-09-26T14:14:53.557Z,6.07
2022-09-26T14:19:09.350Z,8.68
2022-09-26T14:22:54.997Z,4.05
2022-09-26T14:30:30.056Z,6.53
2022-09-26T14:34:26.293Z,7.50
2022-09-26T14:38:18.333Z,6.63
2022-09-26T14:42:40.034Z,3.67
2022-09-26T14:46:26.302Z,5.20
2022-09-26T14:50:18.139Z,3.75
2022-09-26T14:54:18.870Z,6.85
2022-09-26T14:58:28.680Z,3.97
2022-09-26T15:02:13.937Z,3.20
2022-09-26T15:05:59.315Z,3.47
2022-09-26T15:09:49.871Z,5.65
2022-09-26T15:13:42.656Z,4.60
2022-09-26T15:17:34.369Z,4.07
2022-09-26T15:21:33.912Z,5.95
2022-09-26T15:25:23.134Z,3.53
2022-09-26T15:29:07.105Z,4.75
2022-09-26T15:32:49.276Z,3.25
2022-09-26T15:36:34.476Z,3.22
2022-09-26T15:40:25.637Z,8.50
2022-09-26T15:44:31.352Z,5.38
2022-09-26T15:48:19.362Z,5.93
2022-09-26T15:52:01.825Z,11.38
2022-09-26T15:55:56.148Z,6.53
2022-09-26T15:59:41.485Z,4.93
2022-09-26T16:03:47.951Z,6.22
2022-09-26T16:07:34.303Z,3.95
2022-09-26T16:11:16.329Z,6.60
2022-09-26T16:15:19.213Z,5.75
2022-09-26T16:19:03.763Z,7.10
2022-09-26T16:23:05.212Z,8.05
2022-09-26T16:26:49.810Z,4.75
2022-09-26T16:30:31.693Z,7.10
2022-09-26T16:34:26.147Z,4.88
2022-09-26T16:38:35.191Z,6.85
2022-09-26T16:42:17.818Z,4.43
2022-09-26T16:46:05.494Z,6.00
2022-09-26T16:49:48.671Z,5.82
2022-09-26T16:53:31.852Z,11.20
2022-09-26T16:57:20.798Z,4.15
2022-09-26T17:01:21.164Z,5.38
2022-09-26T17:05:03.186Z,4.65
2022-09-26T17:08:45.308Z,9.13
2022-09-26T17:12:27.361Z,6.55
2022-09-26T17:16:10.655Z,5.18
2022-09-26T17:19:59.597Z,5.82
2022-09-26T17:23:42.468Z,6.65
2022-09-26T17:27:28.776Z,3.92
2022-09-26T17:35:29.523Z,5.40
2022-09-26T17:39:15.404Z,7.50
2022-09-26T17:43:00.320Z,2.58
2022-09-26T17:46:42.588Z,4.80
2022-09-26T17:50:30.489Z,4.25
2022-09-26T17:54:18.952Z,7.10
2022-09-26T17:58:02.478Z,7.93
2022-09-26T18:01:47.405Z,6.25
2022-09-26T18:05:34.327Z,10.03
2022-09-26T18:09:19.084Z,5.88
2022-09-26T18:13:08.267Z,8.82
2022-09-26T18:16:54.233Z,6.00
2022-09-26T18:20:38.052Z,4.68
2022-09-26T18:24:21.065Z,7.77
2022-09-26T18:28:06.939Z,6.00
2022-09-26T18:31:51.266Z,4.70
2022-09-26T18:35:33.318Z,6.53
2022-09-26T18:39:15.407Z,9.67
2022-09-26T18:42:58.313Z,5.80
2022-09-26T18:46:44.484Z,8.40
2022-09-26T18:54:17.580Z,13.13
2022-09-26T18:58:18.508Z,7.87
2022-09-26T19:02:03.739Z,4.53
2022-09-26T19:05:45.811Z,4.67
2022-09-26T19:09:33.640Z,7.80
2022-09-26T19:13:15.741Z,6.63
2022-09-26T19:16:58.517Z,7.50
2022-09-26T19:20:40.414Z,7.23
2022-09-26T19:24:38.046Z,7.10
2022-09-26T19:28:24.364Z,7.17
2022-09-26T19:32:10.884Z,7.43
2022-09-26T19:35:53.207Z,11.27
2022-09-26T19:39:35.362Z,4.93
2022-09-26T19:43:18.286Z,7.33
2022-09-26T19:47:00.672Z,8.97
2022-09-26T19:50:44.476Z,9.73
2022-09-26T19:54:28.098Z,6.00
2022-09-26T19:58:20.615Z,8.57
2022-09-26T20:02:04.433Z,7.53
2022-09-26T20:05:50.144Z,7.90
2022-09-26T20:09:32.485Z,7.72
2022-09-26T20:13:14.539Z,7.57
2022-09-26T20:17:02.522Z,6.90
2022-09-26T20:20:52.243Z,7.93
2022-09-26T20:24:37.333Z,6.90
2022-09-26T20:28:19.786Z,11.00
2022-09-26T20:32:05.861Z,9.17
2022-09-26T20:35:50.384Z,5.85
2022-09-26T20:39:32.499Z,10.90
2022-09-26T20:43:21.009Z,8.33
2022-09-26T20:47:06.740Z,6.73
2022-09-26T20:50:49.631Z,5.88
2022-09-26T20:54:32.942Z,5.50
2022-09-26T20:58:15.063Z,6.87
2022-09-26T21:01:57.917Z,5.93
2022-09-26T21:05:40.619Z,4.73
2022-09-26T21:09:22.624Z,6.93
2022-09-26T21:13:04.591Z,5.20
2022-09-26T21:16:52.020Z,10.00
2022-09-26T21:20:35.017Z,3.70
2022-09-26T21:24:24.808Z,4.83
2022-09-26T21:28:22.757Z,5.90
2022-09-26T21:32:13.621Z,4.90
2022-09-26T21:35:55.690Z,6.17
2022-09-26T21:39:39.135Z,11.90
2022-09-26T21:43:25.322Z,5.47
2022-09-26T21:47:07.290Z,4.10
2022-09-26T21:50:58.203Z,4.53
2022-09-26T21:54:44.210Z,5.37
2022-09-26T21:58:34.764Z,4.97
2022-09-26T22:02:17.122Z,4.07
2022-09-26T22:06:01.445Z,4.27
2022-09-26T22:09:47.131Z,7.43
2022-09-26T22:13:29.724Z,7.40
2022-09-26T22:17:11.684Z,6.20
2022-09-26T22:20:56.945Z,5.30
2022-09-26T22:24:39.072Z,6.97
2022-09-26T22:28:20.956Z,7.53
2022-09-26T22:32:04.147Z,3.87
2022-09-26T22:35:50.401Z,6.40
2022-09-26T22:43:15.060Z,3.70
2022-09-26T22:46:56.920Z,4.00
2022-09-26T22:50:39.069Z,4.60
2022-09-26T22:54:21.012Z,8.90
2022-09-26T22:58:03.112Z,6.20
2022-09-26T23:01:45.146Z,5.30
2022-09-26T23:05:27.124Z,3.20
2022-09-26T23:09:09.249Z,4.30
2022-09-26T23:12:51.335Z,6.70
2022-09-26T23:16:33.622Z,3.80
2022-09-26T23:20:15.822Z,4.70
2022-09-26T23:23:58.512Z,2.63
2022-09-26T23:27:40.657Z,7.50
2022-09-26T23:31:24.245Z,11.90
2022-09-26T23:35:06.713Z,4.03
2022-09-26T23:38:48.863Z,5.07
2022-09-26T23:42:31.050Z,6.30
2022-09-26T23:46:13.364Z,7.20
2022-09-26T23:49:55.673Z,6.43
2022-09-26T23:53:38.020Z,4.50
2022-09-26T23:57:20.590Z,4.10
